createdAt,value
2022-12-18T00:01:24.750Z,22.33
2022-12-18T00:03:52.589Z,25.23
2022-12-18T00:06:20.172Z,24.77
2022-12-18T00:08:47.551Z,25.92
2022-12-18T00:11:19.879Z,22.65
2022-12-18T00:13:47.596Z,24.13
2022-12-18T00:16:17.351Z,25.23
2022-12-18T00:18:44.357Z,24.08
2022-12-18T00:21:12.914Z,23.63
2022-12-18T00:23:41.528Z,22.13
2022-12-18T00:26:14.246Z,24.27
2022-12-18T00:28:41.003Z,25.58
2022-12-18T00:31:14.766Z,23.50
2022-12-18T00:33:42.297Z,22.95
2022-12-18T00:36:13.350Z,20.55
2022-12-18T00:38:40.685Z,21.38
2022-12-18T00:41:09.581Z,19.70
2022-12-18T00:43:37.921Z,21.83
2022-12-18T00:46:05.253Z,23.58
2022-12-18T00:48:32.190Z,19.58
2022-12-18T00:50:59.313Z,19.27
2022-12-18T00:53:26.097Z,18.98
2022-12-18T00:55:52.829Z,20.73
2022-12-18T00:58:19.641Z,22.52
2022-12-18T01:00:46.458Z,23.08
2022-12-18T01:03:16.453Z,19.58
2022-12-18T01:05:43.633Z,20.40
2022-12-18T01:08:10.630Z,19.85
2022-12-18T01:10:37.576Z,19.00
2022-12-18T01:13:04.323Z,19.80
2022-12-18T01:15:31.139Z,21.67
2022-12-18T01:17:57.986Z,20.65
2022-12-18T01:20:24.854Z,20.77
2022-12-18T01:22:51.612Z,18.80
2022-12-18T01:25:18.570Z,19.15
2022-12-18T01:27:45.349Z,18.95
2022-12-18T01:30:12.569Z,21.98
2022-12-18T01:32:39.320Z,19.00
2022-12-18T01:35:06.813Z,19.00
2022-12-18T01:37:33.646Z,17.63
2022-12-18T01:40:00.442Z,18.85
2022-12-18T01:42:27.153Z,18.85
2022-12-18T01:45:02.785Z,17.90
2022-12-18T01:47:29.522Z,17.83
2022-12-18T01:49:58.696Z,19.02
2022-12-18T01:52:29.175Z,18.38
2022-12-18T01:54:57.108Z,18.17
2022-12-18T01:57:24.983Z,20.30
2022-12-18T01:59:54.671Z,19.50
2022-12-18T02:02:22.308Z,18.55
2022-12-18T02:04:49.828Z,17.60
2022-12-18T02:07:38.357Z,17.30
2022-12-18T02:10:08.586Z,17.02
2022-12-18T02:12:48.460Z,17.85
2022-12-18T02:15:15.203Z,17.48
2022-12-18T02:17:50.604Z,16.75
2022-12-18T02:20:33.117Z,16.90
2022-12-18T02:23:39.389Z,17.45
2022-12-18T02:26:18.434Z,15.35
2022-12-18T02:28:51.278Z,16.77
2022-12-18T02:31:26.285Z,16.42
2022-12-18T02:33:56.262Z,16.65
2022-12-18T02:36:24.571Z,16.33
2022-12-18T02:38:53.300Z,16.90
2022-12-18T02:41:20.675Z,17.13
2022-12-18T02:43:54.409Z,17.38
2022-12-18T02:46:35.481Z,15.15
2022-12-18T02:49:27.828Z,17.42
2022-12-18T02:52:17.249Z,14.75
2022-12-18T02:55:14.141Z,14.95
2022-12-18T02:57:54.815Z,16.35
2022-12-18T03:00:42.512Z,15.88
2022-12-18T03:03:25.729Z,15.77
2022-12-18T03:06:01.353Z,16.20
2022-12-18T03:08:38.201Z,16.25
2022-12-18T03:11:13.082Z,14.93
2022-12-18T03:13:52.029Z,16.50
2022-12-18T03:16:26.609Z,16.10
2022-12-18T03:19:01.888Z,15.63
2022-12-18T03:21:48.488Z,15.10
2022-12-18T03:24:16.333Z,15.75
2022-12-18T03:26:46.502Z,15.95
2022-12-18T03:29:41.517Z,15.45
2022-12-18T03:32:17.238Z,15.50
2022-12-18T03:34:48.674Z,15.15
2022-12-18T03:37:15.541Z,15.75
2022-12-18T03:39:42.579Z,15.63
2022-12-18T03:42:22.550Z,14.18
2022-12-18T03:45:19.825Z,12.88
2022-12-18T03:48:02.919Z,13.60
2022-12-18T03:50:58.014Z,13.30
2022-12-18T03:53:33.347Z,15.07
2022-12-18T03:56:02.847Z,12.55
2022-12-18T03:58:31.329Z,12.52
2022-12-18T04:01:02.285Z,12.45
2022-12-18T04:03:31.114Z,10.05
2022-12-18T04:06:00.209Z,12.50
2022-12-18T04:08:27.462Z,12.20
2022-12-18T04:10:54.351Z,13.57
2022-12-18T04:13:28.494Z,13.30
2022-12-18T04:15:55.346Z,13.00
2022-12-18T04:18:22.187Z,12.45
2022-12-18T04:20:48.934Z,12.15
2022-12-18T04:23:15.725Z,11.95
2022-12-18T04:25:42.570Z,10.38
2022-12-18T04:28:09.611Z,11.15
2022-12-18T04:30:36.452Z,10.48
2022-12-18T04:33:03.250Z,10.40
2022-12-18T04:35:31.408Z,10.68
2022-12-18T04:37:58.185Z,10.07
2022-12-18T04:40:25.049Z,10.40
2022-12-18T04:42:51.818Z,9.73
2022-12-18T04:45:18.663Z,9.80
2022-12-18T04:47:45.428Z,9.95
2022-12-18T04:50:12.376Z,9.88
2022-12-18T04:52:39.230Z,9.90
2022-12-18T04:55:06.823Z,8.00
2022-12-18T04:57:33.716Z,9.20
2022-12-18T05:00:00.453Z,9.50
2022-12-18T05:02:27.323Z,9.63
2022-12-18T05:04:54.213Z,10.27
2022-12-18T05:07:20.949Z,9.63
2022-12-18T05:09:47.695Z,9.95
2022-12-18T05:12:14.426Z,8.23
2022-12-18T05:14:41.160Z,8.90
2022-12-18T05:17:07.927Z,8.68
2022-12-18T05:19:34.699Z,8.00
2022-12-18T05:22:02.497Z,7.97
2022-12-18T05:24:29.254Z,9.15
2022-12-18T05:26:56.037Z,8.15
2022-12-18T05:29:22.867Z,8.18
2022-12-18T05:31:49.715Z,7.68
2022-12-18T05:34:16.743Z,7.35
2022-12-18T05:36:43.699Z,7.70
2022-12-18T05:39:11.502Z,8.50
2022-12-18T05:41:38.342Z,10.15
2022-12-18T05:44:05.198Z,10.23
2022-12-18T05:46:32.839Z,9.73
2022-12-18T05:49:02.420Z,9.48
2022-12-18T05:51:29.307Z,8.90
2022-12-18T05:53:56.414Z,8.02
2022-12-18T05:56:24.019Z,7.43
2022-12-18T05:58:55.042Z,9.10
2022-12-18T06:01:25.381Z,9.18
2022-12-18T06:03:52.286Z,8.88
2022-12-18T06:06:24.656Z,7.82
2022-12-18T06:08:54.564Z,8.43
2022-12-18T06:11:24.118Z,9.73
2022-12-18T06:13:57.806Z,10.88
2022-12-18T06:16:24.982Z,9.98
2022-12-18T06:18:51.894Z,11.30
2022-12-18T06:21:18.784Z,10.63
2022-12-18T06:23:45.575Z,9.18
2022-12-18T06:26:13.991Z,10.02
2022-12-18T06:28:41.434Z,10.25
2022-12-18T06:31:09.735Z,12.13
2022-12-18T06:33:37.530Z,12.02
2022-12-18T06:36:06.298Z,12.23
2022-12-18T06:38:33.972Z,11.55
2022-12-18T06:41:00.959Z,9.27
2022-12-18T06:43:28.004Z,10.90
2022-12-18T06:46:03.694Z,9.98
2022-12-18T06:48:31.215Z,10.38
2022-12-18T06:50:58.463Z,10.65
2022-12-18T06:53:25.944Z,10.75
2022-12-18T06:55:52.765Z,11.70
2022-12-18T06:58:19.658Z,13.15
2022-12-18T07:00:46.455Z,12.68
2022-12-18T07:03:13.393Z,13.82
2022-12-18T07:05:43.087Z,13.20
2022-12-18T07:08:09.914Z,15.32
2022-12-18T07:10:46.966Z,15.73
2022-12-18T07:13:19.120Z,13.77
2022-12-18T07:15:45.915Z,14.15
2022-12-18T07:18:12.708Z,14.85
2022-12-18T07:20:40.450Z,14.95
2022-12-18T07:23:07.210Z,14.20
2022-12-18T07:25:38.016Z,16.05
2022-12-18T07:28:05.293Z,16.42
2022-12-18T07:30:32.315Z,16.98
2022-12-18T07:32:59.175Z,17.00
2022-12-18T07:35:26.071Z,17.45
2022-12-18T07:37:52.963Z,18.88
2022-12-18T07:40:19.870Z,18.30
2022-12-18T07:42:46.622Z,21.25
2022-12-18T07:45:13.457Z,23.08
2022-12-18T07:47:42.217Z,21.15
2022-12-18T07:50:09.487Z,22.73
2022-12-18T07:52:36.290Z,21.50
2022-12-18T07:55:03.658Z,22.20
2022-12-18T08:00:17.535Z,21.83
2022-12-18T08:02:44.743Z,22.23
2022-12-18T08:05:11.685Z,22.80
2022-12-18T08:07:38.458Z,24.25
2022-12-18T08:10:05.689Z,23.45
2022-12-18T08:12:33.191Z,24.30
2022-12-18T08:15:00.137Z,21.48
2022-12-18T08:17:26.896Z,22.30
2022-12-18T08:19:53.612Z,20.02
2022-12-18T08:22:20.426Z,21.40
2022-12-18T08:24:47.169Z,20.95
2022-12-18T08:27:28.958Z,21.40
2022-12-18T08:29:56.657Z,23.20
2022-12-18T08:32:23.885Z,23.25
2022-12-18T08:34:50.687Z,22.88
2022-12-18T08:37:17.538Z,25.08
2022-12-18T08:39:44.327Z,23.52
2022-12-18T08:42:46.479Z,23.80
2022-12-18T08:45:13.364Z,22.40
2022-12-18T08:47:40.328Z,22.98
2022-12-18T08:50:07.440Z,20.05
2022-12-18T08:52:34.314Z,20.80
2022-12-18T08:55:01.261Z,23.10
2022-12-18T08:57:33.209Z,20.85
2022-12-18T08:59:59.943Z,22.80
2022-12-18T09:02:26.992Z,21.63
2022-12-18T09:04:57.278Z,23.35
2022-12-18T09:07:24.569Z,23.23
2022-12-18T09:09:51.367Z,22.48
2022-12-18T09:12:18.155Z,22.33
2022-12-18T09:14:44.955Z,22.83
2022-12-18T09:17:13.979Z,21.67
2022-12-18T09:19:40.863Z,22.30
2022-12-18T09:22:12.111Z,22.75
2022-12-18T09:24:39.108Z,23.20
2022-12-18T09:27:06.000Z,23.30
2022-12-18T09:29:33.743Z,23.33
2022-12-18T09:32:00.697Z,23.48
2022-12-18T09:34:27.522Z,21.80
2022-12-18T09:37:02.169Z,24.42
2022-12-18T09:39:28.914Z,24.27
2022-12-18T09:42:23.190Z,25.27
2022-12-18T09:44:55.100Z,24.13
2022-12-18T09:47:25.171Z,23.95
2022-12-18T09:49:56.142Z,25.13
2022-12-18T09:52:34.582Z,25.35
2022-12-18T09:55:14.451Z,25.70
2022-12-18T09:57:52.089Z,26.42
2022-12-18T10:00:23.960Z,26.33
2022-12-18T10:02:54.261Z,26.30
2022-12-18T10:05:49.153Z,25.00
2022-12-18T10:08:42.772Z,26.00
2022-12-18T10:11:33.951Z,26.73
2022-12-18T10:14:15.361Z,25.88
2022-12-18T10:17:00.607Z,27.95
2022-12-18T10:19:40.878Z,26.67
2022-12-18T10:25:05.110Z,28.23
2022-12-18T10:27:32.229Z,28.65
2022-12-18T10:30:02.121Z,27.70
2022-12-18T10:32:31.586Z,27.90
2022-12-18T10:35:17.707Z,27.55
2022-12-18T10:38:22.494Z,29.83
2022-12-18T10:41:05.774Z,27.30
2022-12-18T10:43:37.181Z,27.98
2022-12-18T10:46:16.911Z,27.50
2022-12-18T10:48:53.065Z,27.13
2022-12-18T10:51:31.976Z,28.58
2022-12-18T10:54:13.476Z,27.88
2022-12-18T10:56:40.610Z,27.67
2022-12-18T10:59:10.583Z,27.80
2022-12-18T11:01:58.607Z,28.02
2022-12-18T11:04:31.089Z,29.70
2022-12-18T11:07:06.683Z,31.55
2022-12-18T11:09:41.025Z,26.38
2022-12-18T11:12:23.617Z,28.90
2022-12-18T11:14:53.046Z,29.10
2022-12-18T11:17:36.564Z,28.17
2022-12-18T11:20:10.552Z,28.33
2022-12-18T11:22:39.210Z,28.70
2022-12-18T11:28:20.672Z,26.73
2022-12-18T11:30:47.630Z,27.50
2022-12-18T11:33:21.810Z,27.05
2022-12-18T11:35:59.240Z,27.23
2022-12-18T11:38:44.580Z,27.90
2022-12-18T11:41:22.288Z,27.45
2022-12-18T11:43:55.169Z,26.40
2022-12-18T11:46:34.836Z,26.48
2022-12-18T11:49:15.474Z,27.35
2022-12-18T11:51:49.622Z,30.60
2022-12-18T11:54:17.318Z,32.33
2022-12-18T11:57:19.742Z,31.25
2022-12-18T12:00:20.673Z,31.00
2022-12-18T12:03:09.473Z,31.63
2022-12-18T12:05:54.722Z,31.63
2022-12-18T12:08:25.779Z,29.90
2022-12-18T12:11:37.805Z,30.95
2022-12-18T12:14:18.522Z,28.92
2022-12-18T12:16:53.698Z,30.00
2022-12-18T12:19:32.144Z,30.33
2022-12-18T12:22:17.801Z,30.25
2022-12-18T12:25:14.159Z,30.50
2022-12-18T12:28:26.341Z,28.13
2022-12-18T12:31:08.146Z,27.02
2022-12-18T12:36:43.469Z,30.00
2022-12-18T12:39:16.363Z,28.75
2022-12-18T12:42:04.385Z,30.40
2022-12-18T12:44:36.238Z,29.80
2022-12-18T12:47:14.382Z,30.60
2022-12-18T12:49:49.953Z,32.15
2022-12-18T12:52:34.755Z,31.40
2022-12-18T12:55:06.286Z,30.60
2022-12-18T12:57:39.994Z,30.33
2022-12-18T13:00:14.786Z,31.40
2022-12-18T13:02:51.654Z,29.73
2022-12-18T13:05:31.200Z,31.25
2022-12-18T13:08:04.975Z,29.02
2022-12-18T13:10:43.784Z,31.38
2022-12-18T13:16:08.647Z,31.23
2022-12-18T13:18:36.135Z,29.95
2022-12-18T13:21:28.169Z,31.90
2022-12-18T13:26:28.601Z,28.83
2022-12-18T13:28:57.884Z,30.95
2022-12-18T13:31:31.049Z,30.38
2022-12-18T13:34:27.413Z,32.95
2022-12-18T13:36:56.569Z,33.85
2022-12-18T13:39:32.682Z,31.67
2022-12-18T13:42:07.183Z,32.45
2022-12-18T13:44:41.710Z,33.78
2022-12-18T13:47:29.583Z,31.38
2022-12-18T13:49:57.382Z,32.17
2022-12-18T13:52:27.166Z,29.98
2022-12-18T13:54:59.449Z,34.75
2022-12-18T13:57:33.939Z,32.35
2022-12-18T14:00:18.195Z,33.63
2022-12-18T14:02:46.832Z,33.15
2022-12-18T14:05:47.659Z,30.00
2022-12-18T14:08:16.246Z,30.20
2022-12-18T14:10:50.715Z,31.80
2022-12-18T14:13:42.370Z,30.92
2022-12-18T14:16:15.278Z,30.95
2022-12-18T14:18:47.425Z,30.60
2022-12-18T14:21:24.259Z,29.17
2022-12-18T14:24:05.258Z,27.70
2022-12-18T14:26:34.236Z,31.53
2022-12-18T14:29:24.257Z,31.08
2022-12-18T14:32:18.831Z,29.17
2022-12-18T14:34:57.368Z,29.05
2022-12-18T14:37:26.752Z,30.13
2022-12-18T14:40:07.157Z,31.42
2022-12-18T14:42:38.011Z,30.55
2022-12-18T14:45:43.762Z,30.50
2022-12-18T14:48:23.959Z,28.30
2022-12-18T14:51:02.238Z,31.17
2022-12-18T14:53:36.634Z,29.85
2022-12-18T14:56:11.171Z,31.15
2022-12-18T14:58:37.966Z,28.70
2022-12-18T15:01:04.852Z,33.65
2022-12-18T15:03:32.569Z,30.13
2022-12-18T15:06:17.197Z,32.08
2022-12-18T15:08:44.119Z,30.70
2022-12-18T15:11:40.225Z,32.65
2022-12-18T15:14:32.093Z,31.73
2022-12-18T15:17:01.315Z,29.10
2022-12-18T15:19:46.110Z,28.52
2022-12-18T15:22:26.938Z,28.95
2022-12-18T15:24:55.040Z,31.67
2022-12-18T15:27:23.881Z,30.05
2022-12-18T15:30:19.503Z,32.25
2022-12-18T15:32:46.972Z,32.58
2022-12-18T15:35:24.135Z,34.95
2022-12-18T15:37:52.435Z,34.55
2022-12-18T15:40:22.742Z,31.63
2022-12-18T15:43:11.006Z,28.15
2022-12-18T15:45:37.775Z,28.83
2022-12-18T15:48:22.643Z,29.92
2022-12-18T15:50:51.877Z,29.83
2022-12-18T15:53:19.619Z,31.02
2022-12-18T15:56:04.902Z,32.17
2022-12-18T15:58:31.669Z,31.13
2022-12-18T16:01:00.280Z,30.35
2022-12-18T16:03:27.230Z,29.60
2022-12-18T16:05:54.198Z,32.83
2022-12-18T16:08:21.227Z,33.20
2022-12-18T16:10:48.059Z,33.50
2022-12-18T16:13:20.068Z,34.47
2022-12-18T16:15:46.965Z,32.53
2022-12-18T16:18:13.855Z,33.33
2022-12-18T16:20:40.842Z,33.35
2022-12-18T16:23:07.881Z,33.85
2022-12-18T16:25:34.758Z,32.08
2022-12-18T16:28:01.654Z,35.08
2022-12-18T16:30:32.364Z,34.45
2022-12-18T16:33:06.216Z,34.83
2022-12-18T16:35:34.914Z,37.85
2022-12-18T16:38:01.755Z,38.00
2022-12-18T16:40:28.654Z,36.40
2022-12-18T16:42:55.494Z,33.25
2022-12-18T16:45:22.404Z,36.00
2022-12-18T16:47:49.311Z,35.88
2022-12-18T16:50:16.270Z,35.63
2022-12-18T16:52:44.004Z,35.05
2022-12-18T16:55:10.945Z,35.78
2022-12-18T16:57:37.936Z,35.17
2022-12-18T17:00:06.793Z,35.25
2022-12-18T17:02:34.047Z,35.90
2022-12-18T17:05:02.145Z,35.58
2022-12-18T17:07:29.062Z,34.75
2022-12-18T17:09:57.420Z,35.47
2022-12-18T17:12:25.053Z,34.97
2022-12-18T17:14:53.411Z,34.30
2022-12-18T17:17:22.215Z,34.30
2022-12-18T17:19:50.427Z,33.70
2022-12-18T17:22:17.397Z,35.53
2022-12-18T17:24:47.599Z,35.35
2022-12-18T17:27:17.019Z,34.20
2022-12-18T17:29:48.044Z,37.15
2022-12-18T17:32:17.271Z,32.58
2022-12-18T17:34:46.962Z,33.90
2022-12-18T17:37:14.714Z,33.97
2022-12-18T17:39:42.279Z,34.08
2022-12-18T17:42:15.293Z,34.38
2022-12-18T17:44:44.413Z,35.42
2022-12-18T17:47:13.239Z,36.53
2022-12-18T17:49:41.223Z,36.20
2022-12-18T17:52:10.603Z,33.35
2022-12-18T17:54:39.947Z,35.85
2022-12-18T17:57:08.347Z,37.88
2022-12-18T17:59:35.804Z,35.55
2022-12-18T18:02:02.729Z,34.95
2022-12-18T18:04:29.688Z,36.83
2022-12-18T18:06:56.495Z,34.72
2022-12-18T18:09:23.279Z,35.70
2022-12-18T18:12:08.807Z,38.92
2022-12-18T18:14:35.842Z,36.75
2022-12-18T18:17:04.779Z,37.83
2022-12-18T18:19:32.832Z,37.58
2022-12-18T18:21:59.836Z,36.53
2022-12-18T18:24:27.153Z,38.53
2022-12-18T18:26:59.609Z,37.75
2022-12-18T18:29:27.929Z,35.60
2022-12-18T18:31:56.436Z,39.08
2022-12-18T18:34:26.722Z,37.97
2022-12-18T18:36:53.868Z,37.58
2022-12-18T18:39:21.169Z,39.55
2022-12-18T18:41:48.691Z,37.22
2022-12-18T18:44:17.055Z,37.83
2022-12-18T18:46:44.181Z,35.70
2022-12-18T18:49:11.530Z,36.53
2022-12-18T18:51:38.287Z,38.72
2022-12-18T18:54:05.174Z,36.15
2022-12-18T18:59:19.296Z,37.42
2022-12-18T19:01:50.386Z,38.50
2022-12-18T19:04:17.334Z,39.28
2022-12-18T19:06:46.679Z,37.97
2022-12-18T19:09:14.009Z,35.40
2022-12-18T19:12:00.035Z,37.72
2022-12-18T19:14:26.922Z,37.30
2022-12-18T19:16:54.320Z,37.05
2022-12-18T19:19:22.336Z,37.50
2022-12-18T19:21:50.192Z,35.40
2022-12-18T19:24:17.210Z,37.38
2022-12-18T19:26:46.634Z,36.00
2022-12-18T19:29:15.951Z,38.85
2022-12-18T19:31:42.869Z,37.53
2022-12-18T19:34:09.883Z,37.20
2022-12-18T19:36:39.690Z,39.08
2022-12-18T19:39:17.950Z,35.40
2022-12-18T19:41:46.278Z,35.58
2022-12-18T19:44:14.922Z,35.22
2022-12-18T19:46:42.996Z,35.83
2022-12-18T19:49:17.989Z,36.60
2022-12-18T19:51:45.768Z,35.33
2022-12-18T19:54:16.969Z,34.60
2022-12-18T19:56:44.225Z,36.47
2022-12-18T19:59:10.984Z,36.88
2022-12-18T20:01:37.832Z,37.08
2022-12-18T20:04:05.345Z,35.30
2022-12-18T20:06:46.263Z,36.30
2022-12-18T20:09:13.063Z,33.42
2022-12-18T20:11:41.867Z,33.97
2022-12-18T20:14:13.820Z,36.15
2022-12-18T20:16:41.562Z,34.60
2022-12-18T20:19:09.686Z,34.88
2022-12-18T20:21:36.954Z,35.20
2022-12-18T20:24:03.938Z,36.08
2022-12-18T20:26:30.794Z,34.90
2022-12-18T20:28:57.563Z,33.03
2022-12-18T20:31:24.876Z,32.40
2022-12-18T20:33:52.141Z,33.72
2022-12-18T20:36:27.026Z,34.65
2022-12-18T20:38:57.140Z,31.60
2022-12-18T20:41:26.272Z,32.83
2022-12-18T20:43:57.798Z,32.58
2022-12-18T20:46:24.823Z,33.20
2022-12-18T20:48:51.805Z,31.63
2022-12-18T20:51:20.403Z,31.20
2022-12-18T20:53:47.718Z,32.97
2022-12-18T20:56:22.094Z,32.03
2022-12-18T20:58:55.043Z,31.13
2022-12-18T21:01:23.811Z,32.38
2022-12-18T21:03:51.470Z,32.25
2022-12-18T21:06:21.465Z,33.20
2022-12-18T21:08:49.025Z,33.25
2022-12-18T21:11:40.328Z,34.92
2022-12-18T21:14:33.342Z,31.73
2022-12-18T21:17:02.058Z,31.95
2022-12-18T21:19:30.079Z,32.58
2022-12-18T21:21:57.825Z,33.05
2022-12-18T21:24:25.631Z,32.13
2022-12-18T21:26:54.116Z,32.03
2022-12-18T21:29:23.702Z,31.83
2022-12-18T21:31:51.623Z,32.20
2022-12-18T21:34:21.797Z,32.28
2022-12-18T21:36:49.559Z,32.65
2022-12-18T21:39:17.153Z,32.42
2022-12-18T21:42:03.302Z,34.28
2022-12-18T21:44:30.960Z,31.88
2022-12-18T21:47:12.024Z,35.03
2022-12-18T21:49:48.435Z,31.38
2022-12-18T21:52:15.267Z,32.72
2022-12-18T21:54:41.996Z,31.92
2022-12-18T21:57:09.098Z,31.88
2022-12-18T21:59:38.876Z,29.98
2022-12-18T22:02:10.313Z,32.28
2022-12-18T22:04:37.221Z,32.15
2022-12-18T22:07:05.355Z,31.05
2022-12-18T22:09:32.518Z,33.80
2022-12-18T22:11:59.300Z,31.48
2022-12-18T22:14:26.229Z,29.73
2022-12-18T22:16:53.409Z,33.00
2022-12-18T22:19:20.308Z,31.05
2022-12-18T22:21:48.940Z,32.50
2022-12-18T22:24:21.639Z,32.70
2022-12-18T22:26:49.735Z,31.75
2022-12-18T22:29:38.202Z,33.97
2022-12-18T22:32:06.547Z,31.00
2022-12-18T22:34:36.515Z,30.30
2022-12-18T22:37:03.741Z,32.80
2022-12-18T22:39:31.325Z,32.08
2022-12-18T22:41:58.939Z,32.15
2022-12-18T22:44:25.859Z,32.28
2022-12-18T22:47:05.730Z,31.55
2022-12-18T22:49:34.833Z,31.35
2022-12-18T22:52:07.258Z,30.48
2022-12-18T22:54:34.169Z,32.42
2022-12-18T22:57:00.938Z,31.33
2022-12-18T22:59:27.670Z,30.55
2022-12-18T23:01:58.504Z,30.10
2022-12-18T23:04:32.175Z,31.50
2022-12-18T23:07:07.504Z,29.40
2022-12-18T23:09:34.538Z,29.90
2022-12-18T23:12:01.511Z,31.13
2022-12-18T23:14:29.361Z,29.05
2022-12-18T23:16:56.554Z,29.35
2022-12-18T23:19:23.819Z,29.60
2022-12-18T23:21:51.434Z,29.83
2022-12-18T23:24:18.580Z,28.15
2022-12-18T23:26:45.327Z,30.48
2022-12-18T23:29:12.126Z,28.35
2022-12-18T23:31:39.595Z,30.60
2022-12-18T23:34:07.298Z,29.38
2022-12-18T23:36:35.905Z,29.00
2022-12-18T23:39:28.097Z,29.27
2022-12-18T23:41:56.935Z,29.20
2022-12-18T23:44:23.780Z,28.45
2022-12-18T23:46:50.623Z,28.50
2022-12-18T23:49:17.499Z,30.25
2022-12-18T23:51:44.261Z,27.98
2022-12-18T23:54:11.109Z,29.50
2022-12-18T23:56:38.061Z,31.50
2022-12-18T23:59:05.059Z,30.17
